createdAt,value
2022-08-08T00:00:50.607Z,101418.51
2022-08-08T00:03:19.916Z,101420.22
2022-08-08T00:06:58.868Z,101422.89
2022-08-08T00:10:45.410Z,101424.33
2022-08-08T00:14:48.104Z,101421.72
2022-08-08T00:18:24.437Z,101420.60
2022-08-08T00:22:04.317Z,101417.58
2022-08-08T00:25:39.114Z,101412.73
2022-08-08T00:29:44.410Z,101415.70
2022-08-08T00:33:07.859Z,101410.37
2022-08-08T00:36:37.707Z,101416.49
2022-08-08T00:41:06.972Z,101416.91
2022-08-08T00:45:03.170Z,101414.17
2022-08-08T00:49:22.190Z,101413.59
2022-08-08T00:52:58.266Z,101409.61
2022-08-08T00:57:00.869Z,101407.10
2022-08-08T01:00:37.419Z,101412.54
2022-08-08T01:04:42.209Z,101411.19
2022-08-08T01:08:56.251Z,101408.86
2022-08-08T01:13:15.018Z,101406.50
2022-08-08T01:17:15.879Z,101398.24
2022-08-08T01:21:07.789Z,101393.58
2022-08-08T01:33:16.253Z,101397.29
2022-08-08T01:37:51.116Z,101394.39
2022-08-08T01:41:23.267Z,101391.27
2022-08-08T01:45:09.944Z,101395.20
2022-08-08T01:48:55.043Z,101386.17
2022-08-08T01:53:14.636Z,101386.92
2022-08-08T01:56:46.746Z,101386.50
2022-08-08T02:00:21.697Z,101389.59
2022-08-08T02:04:18.930Z,101389.20
2022-08-08T02:08:04.912Z,101388.61
2022-08-08T02:11:58.695Z,101393.31
2022-08-08T02:15:43.930Z,101397.02
2022-08-08T02:19:41.586Z,101391.38
2022-08-08T02:23:18.448Z,101393.29
2022-08-08T02:26:52.918Z,101390.17
2022-08-08T02:30:36.636Z,101393.72
2022-08-08T02:34:34.597Z,101398.59
2022-08-08T02:38:40.967Z,101407.19
2022-08-08T02:42:41.976Z,101405.45
2022-08-08T02:46:45.659Z,101406.91
2022-08-08T02:50:56.083Z,101411.20
2022-08-08T02:55:10.374Z,101411.09
2022-08-08T02:59:37.328Z,101413.86
2022-08-08T03:05:01.564Z,101414.87
2022-08-08T03:08:04.637Z,101414.91
2022-08-08T03:12:05.870Z,101416.89
2022-08-08T03:16:05.199Z,101416.39
2022-08-08T03:20:03.539Z,101417.17
2022-08-08T03:23:39.708Z,101415.22
2022-08-08T03:27:28.651Z,101415.58
2022-08-08T03:31:25.758Z,101416.45
2022-08-08T03:34:54.173Z,101419.84
2022-08-08T03:38:56.191Z,101420.30
2022-08-08T03:42:28.228Z,101420.05
2022-08-08T03:46:09.065Z,101419.02
2022-08-08T03:49:58.123Z,101422.25
2022-08-08T03:53:42.443Z,101425.23
2022-08-08T03:58:33.404Z,101423.97
2022-08-08T04:01:23.432Z,101420.86
2022-08-08T04:04:56.171Z,101421.34
2022-08-08T04:08:33.499Z,101423.31
2022-08-08T04:12:22.876Z,101423.55
2022-08-08T04:16:03.392Z,101424.50
2022-08-08T04:19:40.288Z,101434.77
2022-08-08T04:23:10.625Z,101439.98
2022-08-08T04:26:57.078Z,101439.05
2022-08-08T04:30:26.550Z,101438.59
2022-08-08T04:33:54.397Z,101441.11
2022-08-08T04:37:31.936Z,101440.36
2022-08-08T04:41:03.632Z,101446.27
2022-08-08T04:44:35.373Z,101449.07
2022-08-08T04:48:03.001Z,101445.95
2022-08-08T04:51:55.382Z,101449.84
2022-08-08T04:55:24.672Z,101450.63
2022-08-08T04:59:06.449Z,101452.10
2022-08-08T05:02:36.046Z,101449.36
2022-08-08T05:06:12.751Z,101452.37
2022-08-08T05:09:47.214Z,101458.42
2022-08-08T05:13:17.790Z,101456.98
2022-08-08T05:16:52.551Z,101465.07
2022-08-08T05:20:28.428Z,101465.35
2022-08-08T05:24:04.164Z,101462.13
2022-08-08T05:27:41.659Z,101467.98
2022-08-08T05:32:02.414Z,101470.19
2022-08-08T05:35:05.094Z,101465.39
2022-08-08T05:38:38.205Z,101468.93
2022-08-08T05:42:09.201Z,101466.43
2022-08-08T05:45:43.119Z,101470.48
2022-08-08T05:49:23.212Z,101472.34
2022-08-08T05:52:55.688Z,101477.22
2022-08-08T05:56:24.706Z,101482.29
2022-08-08T06:00:22.472Z,101484.39
2022-08-08T06:03:53.794Z,101486.14
2022-08-08T06:07:23.798Z,101486.00
2022-08-08T06:10:57.510Z,101483.00
2022-08-08T06:14:27.690Z,101479.96
2022-08-08T06:18:20.807Z,101480.74
2022-08-08T06:21:56.854Z,101486.59
2022-08-08T06:26:43.144Z,101489.68
2022-08-08T06:30:00.313Z,101483.77
2022-08-08T06:34:26.191Z,101485.45
2022-08-08T06:37:30.074Z,101482.75
2022-08-08T06:41:15.226Z,101486.45
2022-08-08T06:44:51.738Z,101484.39
2022-08-08T06:48:20.298Z,101486.04
2022-08-08T06:51:57.735Z,101486.96
2022-08-08T06:55:26.172Z,101489.73
2022-08-08T06:58:54.925Z,101481.70
2022-08-08T07:02:29.437Z,101481.61
2022-08-08T07:06:02.378Z,101483.49
2022-08-08T07:09:45.535Z,101487.35
2022-08-08T07:13:29.659Z,101488.66
2022-08-08T07:17:01.823Z,101490.96
2022-08-08T07:20:45.928Z,101488.84
2022-08-08T07:24:27.726Z,101493.05
2022-08-08T07:28:18.568Z,101497.88
2022-08-08T07:31:52.679Z,101495.22
2022-08-08T07:35:23.795Z,101498.19
2022-08-08T07:38:55.558Z,101503.40
2022-08-08T07:42:33.451Z,101503.20
2022-08-08T07:46:23.371Z,101502.59
2022-08-08T07:49:57.593Z,101504.05
2022-08-08T07:54:02.166Z,101500.67
2022-08-08T07:57:36.252Z,101502.05
2022-08-08T08:01:12.033Z,101502.84
2022-08-08T08:04:52.142Z,101499.34
2022-08-08T08:08:33.896Z,101497.26
2022-08-08T08:12:06.382Z,101500.31
2022-08-08T08:15:42.201Z,101506.17
2022-08-08T08:19:14.897Z,101503.20
2022-08-08T08:22:47.265Z,101501.51
2022-08-08T08:26:27.524Z,101500.23
2022-08-08T08:29:57.845Z,101501.85
2022-08-08T08:33:29.382Z,101497.45
2022-08-08T08:37:07.896Z,101500.31
2022-08-08T08:40:40.791Z,101502.20
2022-08-08T08:44:15.538Z,101501.77
2022-08-08T08:47:47.038Z,101500.36
2022-08-08T08:51:18.421Z,101497.15
2022-08-08T08:54:56.313Z,101499.08
2022-08-08T08:58:33.599Z,101496.75
2022-08-08T09:02:03.995Z,101493.17
2022-08-08T09:05:54.189Z,101491.65
2022-08-08T09:09:39.973Z,101489.55
2022-08-08T09:13:30.420Z,101482.17
2022-08-08T09:17:09.645Z,101480.31
2022-08-08T09:21:58.549Z,101480.36
2022-08-08T09:24:33.638Z,101485.59
2022-08-08T09:28:05.047Z,101484.75
2022-08-08T09:31:57.073Z,101485.67
2022-08-08T09:35:57.497Z,101485.05
2022-08-08T09:39:37.429Z,101487.24
2022-08-08T09:43:24.222Z,101483.83
2022-08-08T09:47:26.464Z,101487.39
2022-08-08T09:51:00.117Z,101485.60
2022-08-08T09:54:38.255Z,101487.73
2022-08-08T09:58:10.319Z,101488.48
2022-08-08T10:01:59.675Z,101491.52
2022-08-08T10:05:31.345Z,101489.52
2022-08-08T10:09:03.887Z,101485.84
2022-08-08T10:12:54.441Z,101482.89
2022-08-08T10:16:26.831Z,101480.31
2022-08-08T10:20:00.640Z,101478.56
2022-08-08T10:23:44.964Z,101477.77
2022-08-08T10:27:16.576Z,101474.67
2022-08-08T10:31:01.734Z,101476.08
2022-08-08T10:34:35.270Z,101477.05
2022-08-08T10:38:01.914Z,101475.71
2022-08-08T10:41:35.175Z,101474.30
2022-08-08T10:45:08.162Z,101476.33
2022-08-08T10:48:55.807Z,101474.98
2022-08-08T10:52:35.490Z,101469.92
2022-08-08T10:56:02.814Z,101468.08
2022-08-08T10:59:39.875Z,101470.42
2022-08-08T11:03:17.205Z,101467.63
2022-08-08T11:06:49.614Z,101470.97
2022-08-08T11:10:19.850Z,101470.27
2022-08-08T11:14:01.134Z,101466.93
2022-08-08T11:18:00.421Z,101466.51
2022-08-08T11:21:20.386Z,101463.91
2022-08-08T11:24:50.805Z,101462.93
2022-08-08T11:28:20.581Z,101463.61
2022-08-08T11:31:52.174Z,101458.17
2022-08-08T11:35:27.592Z,101453.95
2022-08-08T11:39:04.449Z,101453.94
2022-08-08T11:42:34.707Z,101451.35
2022-08-08T11:46:14.030Z,101453.59
2022-08-08T11:49:45.695Z,101453.33
2022-08-08T11:53:28.185Z,101450.63
2022-08-08T11:57:27.706Z,101452.92
2022-08-08T12:00:59.952Z,101452.14
2022-08-08T12:04:28.287Z,101450.25
2022-08-08T12:07:56.906Z,101449.55
2022-08-08T12:11:30.813Z,101448.80
2022-08-08T12:15:16.197Z,101451.86
2022-08-08T12:18:53.744Z,101451.12
2022-08-08T12:22:24.902Z,101447.02
2022-08-08T12:26:10.433Z,101446.77
2022-08-08T12:29:57.217Z,101443.30
2022-08-08T12:33:37.835Z,101441.52
2022-08-08T12:37:25.829Z,101446.15
2022-08-08T12:41:35.062Z,101447.53
2022-08-08T12:45:54.775Z,101446.92
2022-08-08T12:49:25.818Z,101445.48
2022-08-08T12:53:03.757Z,101448.16
2022-08-08T12:56:39.402Z,101446.52
2022-08-08T13:00:13.468Z,101446.20
2022-08-08T13:03:52.236Z,101446.89
2022-08-08T13:08:04.337Z,101440.05
2022-08-08T13:12:19.792Z,101440.48
2022-08-08T13:15:54.412Z,101435.64
2022-08-08T13:19:41.155Z,101438.48
2022-08-08T13:23:35.768Z,101436.15
2022-08-08T13:27:17.640Z,101433.86
2022-08-08T13:31:10.394Z,101438.33
2022-08-08T13:34:44.281Z,101436.40
2022-08-08T13:38:20.198Z,101433.74
2022-08-08T13:42:01.244Z,101438.23
2022-08-08T13:45:30.895Z,101440.73
2022-08-08T13:49:11.905Z,101446.04
2022-08-08T13:52:55.081Z,101439.91
2022-08-08T13:56:41.823Z,101443.23
2022-08-08T14:00:26.289Z,101441.69
2022-08-08T14:04:07.623Z,101442.08
2022-08-08T14:07:59.471Z,101441.63
2022-08-08T14:11:43.846Z,101445.52
2022-08-08T14:15:31.597Z,101444.43
2022-08-08T14:19:10.915Z,101446.04
2022-08-08T14:22:43.731Z,101447.80
2022-08-08T14:26:25.081Z,101449.94
2022-08-08T14:30:00.633Z,101450.72
2022-08-08T14:33:36.354Z,101451.38
2022-08-08T14:37:08.977Z,101454.71
2022-08-08T14:40:41.296Z,101451.27
2022-08-08T14:44:20.970Z,101449.89
2022-08-08T14:47:54.429Z,101445.84
2022-08-08T14:51:47.100Z,101442.90
2022-08-08T14:55:16.414Z,101443.33
2022-08-08T14:58:52.773Z,101439.06
2022-08-08T15:02:36.189Z,101441.32
2022-08-08T15:06:33.675Z,101438.54
2022-08-08T15:10:14.433Z,101439.13
2022-08-08T15:14:01.631Z,101439.87
2022-08-08T15:17:41.818Z,101442.48
2022-08-08T15:21:15.686Z,101445.64
2022-08-08T15:24:58.714Z,101441.94
2022-08-08T15:28:33.624Z,101442.35
2022-08-08T15:32:19.322Z,101442.95
2022-08-08T15:35:50.055Z,101447.31
2022-08-08T15:39:18.228Z,101445.33
2022-08-08T15:42:49.570Z,101446.58
2022-08-08T15:46:17.184Z,101442.26
2022-08-08T15:49:54.774Z,101443.08
2022-08-08T15:53:24.180Z,101448.23
2022-08-08T15:56:54.001Z,101451.56
2022-08-08T16:00:27.390Z,101449.30
2022-08-08T16:03:58.091Z,101448.47
2022-08-08T16:07:51.753Z,101449.22
2022-08-08T16:13:09.721Z,101451.56
2022-08-08T16:15:03.011Z,101450.83
2022-08-08T16:18:33.290Z,101448.75
2022-08-08T16:22:00.447Z,101450.79
2022-08-08T16:25:45.656Z,101451.95
2022-08-08T16:29:18.079Z,101447.12
2022-08-08T16:32:52.149Z,101444.91
2022-08-08T16:36:34.042Z,101452.98
2022-08-08T16:40:09.218Z,101452.79
2022-08-08T16:43:42.062Z,101449.31
2022-08-08T16:47:31.507Z,101452.69
2022-08-08T16:51:10.621Z,101454.22
2022-08-08T16:55:06.466Z,101454.25
2022-08-08T16:58:31.628Z,101454.09
2022-08-08T17:02:02.564Z,101453.65
2022-08-08T17:05:31.391Z,101458.14
2022-08-08T17:09:14.830Z,101458.34
2022-08-08T17:12:52.685Z,101462.05
2022-08-08T17:16:24.421Z,101459.08
2022-08-08T17:19:56.645Z,101459.09
2022-08-08T17:23:58.497Z,101456.17
2022-08-08T17:27:13.872Z,101457.23
2022-08-08T17:30:45.481Z,101455.16
2022-08-08T17:34:53.145Z,101453.61
2022-08-08T17:38:01.998Z,101458.21
2022-08-08T17:41:39.230Z,101461.70
2022-08-08T17:45:14.355Z,101463.59
2022-08-08T17:48:52.292Z,101467.52
2022-08-08T17:52:38.643Z,101470.77
2022-08-08T17:56:14.813Z,101471.83
2022-08-08T18:00:10.288Z,101476.03
2022-08-08T18:04:00.370Z,101478.10
2022-08-08T18:08:02.689Z,101477.35
2022-08-08T18:11:52.287Z,101478.32
2022-08-08T18:15:36.888Z,101481.26
2022-08-08T18:19:27.365Z,101483.71
2022-08-08T18:23:15.146Z,101488.61
2022-08-08T18:26:56.941Z,101490.97
2022-08-08T18:30:38.110Z,101493.71
2022-08-08T18:34:26.979Z,101498.91
2022-08-08T18:38:03.503Z,101508.71
2022-08-08T18:41:51.409Z,101511.51
2022-08-08T18:46:06.216Z,101518.99
2022-08-08T18:49:24.294Z,101525.15
2022-08-08T18:52:53.091Z,101528.47
2022-08-08T18:56:26.191Z,101534.42
2022-08-08T18:59:53.421Z,101535.38
2022-08-08T19:03:22.690Z,101540.60
2022-08-08T19:06:52.492Z,101542.73
2022-08-08T19:10:21.633Z,101540.48
2022-08-08T19:13:57.266Z,101548.89
2022-08-08T19:17:29.382Z,101551.46
2022-08-08T19:21:29.284Z,101551.56
2022-08-08T19:25:30.137Z,101553.44
2022-08-08T19:28:47.544Z,101553.18
2022-08-08T19:32:19.435Z,101554.33
2022-08-08T19:36:08.726Z,101556.46
2022-08-08T19:39:39.439Z,101560.39
2022-08-08T19:43:11.682Z,101561.64
2022-08-08T19:46:39.506Z,101562.67
2022-08-08T19:50:08.456Z,101560.51
2022-08-08T19:53:51.184Z,101561.50
2022-08-08T19:57:29.114Z,101563.42
2022-08-08T20:00:59.180Z,101570.43
2022-08-08T20:04:31.127Z,101573.40
2022-08-08T20:08:30.863Z,101580.77
2022-08-08T20:11:50.117Z,101579.76
2022-08-08T20:15:23.319Z,101585.20
2022-08-08T20:19:13.674Z,101593.09
2022-08-08T20:22:43.341Z,101596.60
2022-08-08T20:26:14.324Z,101594.09
2022-08-08T20:29:45.633Z,101595.68
2022-08-08T20:36:48.874Z,101593.44
2022-08-08T20:40:17.315Z,101592.88
2022-08-08T20:43:58.254Z,101592.80
2022-08-08T20:47:36.617Z,101591.89
2022-08-08T20:51:09.240Z,101588.71
2022-08-08T20:54:38.193Z,101590.41
2022-08-08T20:58:13.674Z,101589.36
2022-08-08T21:02:06.309Z,101591.74
2022-08-08T21:05:58.533Z,101592.73
2022-08-08T21:09:31.731Z,101590.14
2022-08-08T21:13:15.744Z,101592.46
2022-08-08T21:16:45.654Z,101591.08
2022-08-08T21:20:14.873Z,101591.66
2022-08-08T21:24:02.384Z,101594.17
2022-08-08T21:28:06.614Z,101595.96
2022-08-08T21:31:23.285Z,101604.16
2022-08-08T21:34:56.770Z,101604.66
2022-08-08T21:38:43.765Z,101605.77
2022-08-08T21:42:18.795Z,101605.02
2022-08-08T21:48:08.717Z,101607.67
2022-08-08T21:49:40.795Z,101610.30
2022-08-08T21:54:22.664Z,101606.82
2022-08-08T21:57:03.771Z,101600.89
2022-08-08T22:00:33.255Z,101601.48
2022-08-08T22:04:10.544Z,101603.70
2022-08-08T22:07:48.194Z,101608.70
2022-08-08T22:11:22.739Z,101606.02
2022-08-08T22:15:13.736Z,101604.14
2022-08-08T22:18:43.694Z,101607.93
2022-08-08T22:22:16.940Z,101608.98
2022-08-08T22:26:26.680Z,101614.39
2022-08-08T22:29:59.522Z,101615.79
2022-08-08T22:34:13.841Z,101616.27
2022-08-08T22:37:49.323Z,101610.66
2022-08-08T22:41:04.045Z,101607.58
2022-08-08T22:44:44.213Z,101609.38
2022-08-08T22:48:13.929Z,101611.51
2022-08-08T22:51:42.672Z,101610.05
2022-08-08T22:55:15.071Z,101613.19
2022-08-08T22:58:45.187Z,101612.88
2022-08-08T23:02:19.879Z,101616.42
2022-08-08T23:05:49.915Z,101615.63
2022-08-08T23:09:18.643Z,101616.30
2022-08-08T23:12:48.801Z,101615.24
2022-08-08T23:16:38.996Z,101616.04
2022-08-08T23:20:11.109Z,101617.92
2022-08-08T23:23:48.231Z,101619.45
2022-08-08T23:27:38.173Z,101617.08
2022-08-08T23:31:09.459Z,101616.14
2022-08-08T23:34:38.179Z,101615.92
2022-08-08T23:38:06.080Z,101617.93
2022-08-08T23:41:45.564Z,101615.27
2022-08-08T23:45:14.018Z,101617.52
2022-08-08T23:49:06.767Z,101613.76
2022-08-08T23:52:31.119Z,101608.27
2022-08-08T23:55:59.031Z,101608.04
2022-08-08T23:59:26.453Z,101602.05
